Time;durP1;ratioP1;P1;durP2;ratioP2;P2;SDS_P1;SDS_P2;PMS_P1;PMS_P2;Temp;Humidity;BMP_temperature;BMP_pressure;BME280_temperature;BME280_humidity;BME280_pressure;Samples;Min_cycle;Max_cycle;Signal;HPM_P1;HPM_P2
2022/12/30 00:01:12;;;;;;;14.93;11.27;;;;;;;19.82;54.11;101494.75;5014596;28;20381;-52
2022/12/30 00:03:40;;;;;;;13.88;10.73;;;;;;;19.82;53.98;101498.31;5014572;28;20061;-52
2022/12/30 00:06:14;;;;;;;14.90;11.02;;;;;;;19.83;54.14;101496.47;5014961;28;20060;-53
2022/12/30 00:08:46;;;;;;;13.60;10.75;;;;;;;19.83;54.04;101493.78;5015175;28;20507;-50
2022/12/30 00:11:21;;;;;;;14.25;11.77;;;;;;;19.81;54.22;101504.66;5015090;28;20057;-49
2022/12/30 00:34:38;;;;;;;14.20;10.52;;;;;;;19.77;54.22;101519.31;5014727;28;20053;-52
2022/12/30 00:37:05;;;;;;;14.15;11.27;;;;;;;19.78;54.14;101533.59;5014346;28;20073;-51
2022/12/30 00:39:33;;;;;;;15.15;10.93;;;;;;;19.76;54.30;101520.25;5014331;28;20392;-49
2022/12/30 00:44:45;;;;;;;13.23;10.52;;;;;;;19.75;54.31;101514.03;5014437;28;20468;-54
2022/12/30 00:47:13;;;;;;;12.50;10.23;;;;;;;19.76;54.20;101522.94;5014442;28;20494;-51
2022/12/30 00:57:58;;;;;;;13.95;11.00;;;;;;;19.74;54.22;101541.88;5014086;28;20049;-50
2022/12/30 01:00:25;;;;;;;14.98;11.30;;;;;;;19.75;54.49;101538.19;5014196;28;20046;-52
2022/12/30 01:02:53;;;;;;;11.27;9.57;;;;;;;19.74;54.54;101552.63;5014155;28;20065;-50
2022/12/30 01:05:21;;;;;;;13.48;11.50;;;;;;;19.75;54.14;101543.56;5014101;28;20363;-51
2022/12/30 01:07:48;;;;;;;16.00;11.15;;;;;;;19.75;54.42;101538.19;5013930;28;20408;-52
2022/12/30 01:10:15;;;;;;;15.93;11.50;;;;;;;19.75;54.40;101538.19;5013813;28;20050;-51
2022/12/30 01:12:43;;;;;;;14.15;11.32;;;;;;;19.74;54.23;101533.81;5014206;28;20050;-51
2022/12/30 01:15:10;;;;;;;13.95;11.10;;;;;;;19.74;54.22;101541.03;5013861;28;20053;-53
2022/12/30 01:17:38;;;;;;;13.25;10.80;;;;;;;19.74;54.22;101541.88;5013964;28;20042;-54
2022/12/30 01:20:06;;;;;;;14.10;10.75;;;;;;;19.73;54.46;101534.78;5013864;28;20050;-52
2022/12/30 01:22:34;;;;;;;15.25;10.55;;;;;;;19.74;54.49;101536.50;5013901;28;20050;-54
2022/12/30 01:25:01;;;;;;;13.10;9.82;;;;;;;19.74;54.49;101535.66;5013837;28;20049;-52
2022/12/30 01:27:30;;;;;;;13.07;10.85;;;;;;;19.74;54.45;101541.03;5013678;28;20041;-54
2022/12/30 01:29:59;;;;;;;15.57;11.40;;;;;;;19.74;54.25;101539.19;5014245;28;20060;-53
2022/12/30 01:32:29;;;;;;;14.45;11.05;;;;;;;19.74;54.49;101528.44;5013823;28;20050;-53
2022/12/30 01:34:57;;;;;;;12.65;10.75;;;;;;;19.74;54.32;101528.44;5013741;28;20464;-51
2022/12/30 01:37:24;;;;;;;14.68;10.82;;;;;;;19.74;54.48;101527.59;5013603;28;20381;-52
2022/12/30 01:39:52;;;;;;;12.93;10.30;;;;;;;19.73;54.52;101533.94;5013506;28;20053;-54
2022/12/30 01:42:28;;;;;;;18.00;11.23;;;;;;;19.73;54.47;101537.47;5013511;28;20050;-53
2022/12/30 01:45:13;;;;;;;17.95;12.15;;;;;;;19.72;54.58;101524.16;5013751;28;20503;-53
2022/12/30 01:47:54;;;;;;;15.18;10.75;;;;;;;19.72;54.59;101527.69;5013681;28;20511;-51
2022/12/30 01:50:34;;;;;;;14.63;11.32;;;;;;;19.72;54.66;101525.00;5013619;28;20050;-51
2022/12/30 01:53:04;;;;;;;13.07;10.68;;;;;;;19.71;54.77;101511.69;5013579;28;20054;-51
2022/12/30 01:55:41;;;;;;;16.20;12.02;;;;;;;19.72;54.57;101516.09;5013368;28;20218;-53
2022/12/30 01:58:15;;;;;;;13.32;10.68;;;;;;;19.70;54.80;101500.09;5013153;28;20046;-51
2022/12/30 02:00:43;;;;;;;14.40;11.18;;;;;;;19.71;54.78;101511.69;5013041;28;20050;-50
2022/12/30 02:03:11;;;;;;;15.00;11.10;;;;;;;19.71;54.78;101509.00;5013370;28;20492;-50
2022/12/30 02:05:41;;;;;;;16.15;11.70;;;;;;;19.70;54.80;101505.47;5013323;28;20054;-49
2022/12/30 02:08:13;;;;;;;13.73;11.13;;;;;;;19.70;54.68;101488.50;5013291;28;20109;-51
2022/12/30 02:10:53;;;;;;;16.75;11.45;;;;;;;19.69;54.57;101484.97;5013328;28;20404;-50
2022/12/30 02:13:21;;;;;;;15.57;11.02;;;;;;;19.69;54.73;101479.59;5013452;28;20045;-51
2022/12/30 02:16:10;;;;;;;16.48;12.20;;;;;;;19.69;54.74;101462.63;5012299;28;20041;-51
2022/12/30 02:19:09;;;;;;;14.88;11.68;;;;;;;19.68;54.71;101448.31;5013369;28;20069;-50
2022/12/30 02:21:57;;;;;;;14.45;10.77;;;;;;;19.68;54.77;101448.31;5013392;28;20057;-49
2022/12/30 02:24:50;;;;;;;14.75;11.35;;;;;;;19.68;54.68;101447.47;5013362;28;20403;-50
2022/12/30 02:27:30;;;;;;;;;;;;;;;19.68;54.79;101451.00;5012820;28;20046;-52
2022/12/30 02:30:20;;;;;;;13.73;11.05;;;;;;;19.68;54.62;101450.13;5013285;28;19929;-50
2022/12/30 02:32:47;;;;;;;14.70;10.98;;;;;;;19.68;54.66;101459.06;5013261;28;20046;-53
2022/12/30 02:35:36;;;;;;;15.27;11.35;;;;;;;19.68;54.65;101452.81;5012965;28;20058;-52
2022/12/30 02:38:19;;;;;;;15.65;11.52;;;;;;;19.68;54.66;101451.00;5012889;28;20033;-54
2022/12/30 02:47:07;;;;;;;17.35;12.15;;;;;;;19.68;54.75;101451.00;5016738;28;20049;-53
2022/12/30 02:49:39;;;;;;;16.80;12.00;;;;;;;19.68;54.75;101442.94;5016571;28;20045;-54
2022/12/30 02:52:17;;;;;;;13.25;11.25;;;;;;;19.68;54.71;101450.13;5016611;28;20050;-50
2022/12/30 02:54:47;;;;;;;14.90;10.88;;;;;;;19.67;54.72;101457.34;5016379;28;20049;-54
2022/12/30 02:57:41;;;;;;;14.93;11.40;;;;;;;19.68;54.76;101451.00;5016443;28;20046;-54
2022/12/30 03:06:12;;;;;;;15.02;12.02;;;;;;;19.68;54.65;101442.94;5016380;28;20053;-52
2022/12/30 03:09:07;;;;;;;16.08;10.68;;;;;;;19.67;54.74;101443.91;5016178;28;20046;-52
2022/12/30 03:11:53;;;;;;;17.55;12.98;;;;;;;19.68;54.87;101448.31;5016184;28;20057;-53
2022/12/30 03:14:34;;;;;;;12.75;11.20;;;;;;;19.66;54.63;101447.59;5016190;28;20046;-52
2022/12/30 03:17:08;;;;;;;13.88;10.93;;;;;;;19.67;54.80;101443.91;5016116;28;20061;-52
2022/12/30 03:19:42;;;;;;;16.08;12.15;;;;;;;19.66;54.85;101439.53;5015907;28;20038;-51
2022/12/30 03:27:03;;;;;;;15.20;12.07;;;;;;;19.66;54.88;101442.22;5015785;28;20056;-53
2022/12/30 03:27:49;;;;;;;13.68;11.32;;;;;;;19.66;54.86;101461.03;5015804;28;20484;-51
2022/12/30 03:30:17;;;;;;;16.55;12.05;;;;;;;19.66;54.89;101450.28;5016018;28;20054;-52
2022/12/30 03:32:45;;;;;;;14.25;11.23;;;;;;;19.66;54.85;101450.28;5015782;28;20046;-54
2022/12/30 03:35:13;;;;;;;14.07;12.10;;;;;;;19.65;55.06;101443.19;5015719;28;20054;-50
2022/12/30 03:37:53;;;;;;;14.82;11.32;;;;;;;19.66;54.86;101452.97;5015361;28;20058;-52
2022/12/30 03:40:28;;;;;;;14.95;10.82;;;;;;;19.65;54.93;101443.19;5015446;28;20430;-52
2022/12/30 03:42:57;;;;;;;13.27;11.80;;;;;;;19.65;55.03;101451.25;5015664;28;20480;-51
2022/12/30 03:45:25;;;;;;;16.23;11.77;;;;;;;19.65;55.10;101448.56;5014028;28;20052;-53
2022/12/30 03:47:52;;;;;;;14.93;11.40;;;;;;;19.64;54.99;101446.84;5015178;28;20050;-51
2022/12/30 03:50:20;;;;;;;14.10;10.68;;;;;;;19.65;55.00;101453.94;5015233;28;20042;-51
2022/12/30 03:52:47;;;;;;;15.35;12.07;;;;;;;19.64;54.92;101457.56;5014021;28;20054;-50
2022/12/30 03:55:14;;;;;;;14.93;11.52;;;;;;;19.65;54.82;101466.53;5015240;28;20041;-54
2022/12/30 03:57:42;;;;;;;13.98;11.77;;;;;;;19.64;54.85;101462.94;5014148;28;20057;-52
2022/12/30 04:00:10;;;;;;;14.23;11.18;;;;;;;19.64;55.14;101465.63;5015229;28;20052;-51
2022/12/30 04:02:40;;;;;;;15.85;11.82;;;;;;;19.64;54.91;101457.56;5015297;28;20060;-51
2022/12/30 04:05:08;;;;;;;15.77;11.27;;;;;;;19.64;54.97;101452.19;5015087;28;20053;-53
2022/12/30 04:07:36;;;;;;;16.75;12.30;;;;;;;19.64;55.11;101451.34;5014873;28;20053;-54
2022/12/30 04:10:03;;;;;;;14.90;11.73;;;;;;;19.64;55.22;101454.88;5014860;28;20057;-50
2022/12/30 04:12:31;;;;;;;16.13;11.57;;;;;;;19.65;54.97;101463.84;5014943;28;20042;-50
2022/12/30 04:14:58;;;;;;;14.00;11.60;;;;;;;19.65;54.92;101459.31;5014494;28;20057;-50
2022/12/30 04:17:26;;;;;;;15.82;11.25;;;;;;;19.64;55.05;101460.25;5014770;28;20056;-49
2022/12/30 04:19:53;;;;;;;14.15;11.55;;;;;;;19.65;54.95;101455.78;5014540;28;20054;-49
2022/12/30 04:22:20;;;;;;;16.17;11.88;;;;;;;19.65;55.25;101462.00;5015046;28;20046;-51
2022/12/30 04:24:48;;;;;;;14.55;11.60;;;;;;;19.65;54.95;101464.69;5014515;28;20049;-52
2022/12/30 04:27:22;;;;;;;14.55;11.70;;;;;;;19.65;55.06;101463.84;5014585;28;20400;-52
2022/12/30 04:29:49;;;;;;;17.40;12.68;;;;;;;19.64;55.08;101473.69;5014704;28;20045;-52
2022/12/30 04:32:16;;;;;;;15.32;10.90;;;;;;;19.65;54.99;101477.25;5015024;28;20412;-50
2022/12/30 04:34:45;;;;;;;15.38;11.68;;;;;;;19.65;55.00;101480.81;5014872;28;20062;-50
2022/12/30 04:37:13;;;;;;;16.67;11.75;;;;;;;19.65;55.12;101469.22;5014446;28;20392;-49
2022/12/30 04:39:40;;;;;;;13.75;12.30;;;;;;;19.65;55.04;101458.47;5014218;28;20480;-50
2022/12/30 04:42:07;;;;;;;17.58;12.23;;;;;;;19.65;55.23;101459.31;5014503;28;20065;-52
2022/12/30 04:44:34;;;;;;;13.35;11.68;;;;;;;19.64;55.29;101452.19;5014418;28;20507;-51
2022/12/30 04:47:02;;;;;;;14.55;11.38;;;;;;;19.65;55.35;101459.31;5014488;28;20050;-49
2022/12/30 04:49:29;;;;;;;14.25;11.13;;;;;;;19.65;55.24;101463.84;5014308;28;20045;-49
2022/12/30 04:51:56;;;;;;;14.88;11.90;;;;;;;19.64;55.26;101462.94;5012870;28;20045;-50
2022/12/30 04:54:24;;;;;;;15.23;12.10;;;;;;;19.64;55.10;101457.56;5014007;28;20049;-54
2022/12/30 04:56:51;;;;;;;14.07;11.45;;;;;;;19.64;55.22;101454.03;5013878;28;20042;-54
2022/12/30 04:59:18;;;;;;;13.32;10.93;;;;;;;19.64;55.38;101456.72;5013881;28;20041;-53
2022/12/30 05:01:47;;;;;;;15.93;11.98;;;;;;;19.63;55.06;101460.41;5014195;28;20392;-52
2022/12/30 05:04:17;;;;;;;16.77;11.60;;;;;;;19.63;55.19;101468.44;5013720;28;20057;-53
2022/12/30 05:06:45;;;;;;;14.90;12.27;;;;;;;19.63;55.31;101472.00;5014129;28;20492;-52
2022/12/30 05:09:12;;;;;;;14.52;11.60;;;;;;;19.64;55.24;101470.16;5014035;28;20038;-54
2022/12/30 05:11:39;;;;;;;14.23;11.70;;;;;;;19.63;55.30;101460.41;5014031;28;20121;-52
2022/12/30 05:14:07;;;;;;;14.32;11.80;;;;;;;19.63;55.21;101463.06;5014002;28;20053;-50
2022/12/30 05:16:34;;;;;;;14.60;12.00;;;;;;;19.62;55.47;101458.69;5013985;28;20061;-50
2022/12/30 05:19:02;;;;;;;14.73;12.45;;;;;;;19.62;55.32;101456.84;5013673;28;20041;-51
2022/12/30 05:21:29;;;;;;;15.25;13.00;;;;;;;19.62;55.20;101459.53;5013883;28;20049;-52
2022/12/30 05:26:42;;;;;;;15.25;12.27;;;;;;;19.62;55.35;101464.91;5013940;28;20050;-51
2022/12/30 05:29:09;;;;;;;16.58;13.88;;;;;;;19.61;55.21;101460.53;5013689;28;20053;-53
2022/12/30 05:31:37;;;;;;;16.15;13.10;;;;;;;19.61;55.21;101452.47;5014002;28;20507;-50
2022/12/30 05:34:04;;;;;;;14.65;12.73;;;;;;;19.62;55.23;101451.47;5014102;28;20057;-52
2022/12/30 05:36:36;;;;;;;15.85;13.55;;;;;;;19.61;55.23;101463.22;5013757;28;20061;-50
2022/12/30 05:39:04;;;;;;;15.57;12.85;;;;;;;19.61;55.23;101471.28;5013624;28;20037;-50
2022/12/30 05:41:32;;;;;;;14.70;13.10;;;;;;;19.62;55.37;101459.53;5013620;28;20049;-51
2022/12/30 05:44:00;;;;;;;17.67;13.02;;;;;;;19.61;55.33;101454.28;5013593;28;20057;-50
2022/12/30 05:46:27;;;;;;;16.45;12.77;;;;;;;19.62;55.29;101456.00;5013615;28;20046;-51
2022/12/30 05:48:54;;;;;;;16.60;13.48;;;;;;;19.62;55.13;101467.59;5013389;28;20049;-53
2022/12/30 05:51:21;;;;;;;18.02;13.68;;;;;;;19.63;55.33;101468.44;5013511;28;20046;-51
2022/12/30 05:53:49;;;;;;;15.48;13.27;;;;;;;19.63;55.52;101455.03;5013497;28;20057;-49
2022/12/30 05:56:16;;;;;;;15.30;13.50;;;;;;;19.62;55.20;101448.78;5013557;28;20392;-52
2022/12/30 05:58:43;;;;;;;16.10;14.40;;;;;;;19.64;55.34;101451.34;5013436;28;20053;-52
2022/12/30 06:01:11;;;;;;;16.02;13.63;;;;;;;19.63;55.29;101469.31;5013548;28;20053;-51
2022/12/30 06:03:38;;;;;;;17.98;14.55;;;;;;;19.64;55.38;101462.09;5013192;28;20046;-51
2022/12/30 06:06:08;;;;;;;18.60;14.35;;;;;;;19.62;55.32;101459.53;5013229;28;20506;-54
2022/12/30 06:08:37;;;;;;;20.63;14.30;;;;;;;19.62;55.33;101459.53;5013469;28;20050;-52
2022/12/30 06:11:05;;;;;;;17.70;14.25;;;;;;;19.63;55.42;101460.41;5013514;28;20050;-53
2022/12/30 06:13:32;;;;;;;16.55;14.25;;;;;;;19.62;55.41;101467.59;5013472;28;20057;-49
2022/12/30 06:15:59;;;;;;;17.90;14.63;;;;;;;19.62;55.37;101469.44;5014163;28;20046;-53
2022/12/30 06:18:27;;;;;;;17.80;14.77;;;;;;;19.62;55.32;101478.34;5016732;28;20049;-50
2022/12/30 06:20:55;;;;;;;20.27;15.48;;;;;;;19.62;55.41;101481.03;5016742;28;20046;-50
2022/12/30 06:23:23;;;;;;;19.98;13.77;;;;;;;19.62;55.66;101486.41;5016693;28;20431;-51
2022/12/30 06:25:56;;;;;;;17.77;14.13;;;;;;;19.62;55.53;101494.47;5017053;28;20050;-52
2022/12/30 06:28:25;;;;;;;17.27;14.93;;;;;;;19.61;55.56;101484.69;5016890;28;20094;-51
2022/12/30 06:30:52;;;;;;;17.83;14.40;;;;;;;19.62;55.48;101489.09;5016752;28;20049;-53
2022/12/30 06:33:20;;;;;;;17.08;14.43;;;;;;;19.62;55.48;101494.47;5016524;28;20408;-51
2022/12/30 06:35:47;;;;;;;18.05;14.38;;;;;;;19.62;55.64;101507.03;5016772;28;20056;-51
2022/12/30 06:38:15;;;;;;;18.52;14.32;;;;;;;19.62;55.71;101505.19;5016861;28;20057;-58
2022/12/30 06:40:44;;;;;;;19.13;14.68;;;;;;;19.61;55.68;101510.66;5016608;28;20053;-59
2022/12/30 06:43:12;;;;;;;20.83;15.40;;;;;;;19.62;55.75;101504.34;5016668;28;20053;-58
2022/12/30 06:45:41;;;;;;;17.95;14.23;;;;;;;19.61;55.92;101506.19;5016461;28;20048;-59
2022/12/30 06:48:08;;;;;;;17.77;14.02;;;;;;;19.61;55.83;101518.72;5016673;28;20366;-59
2022/12/30 06:50:36;;;;;;;18.45;14.32;;;;;;;19.61;55.81;101522.31;5016606;28;20053;-59
2022/12/30 06:53:05;;;;;;;18.88;15.10;;;;;;;19.61;56.00;101524.09;5016528;28;20050;-58
2022/12/30 06:55:32;;;;;;;18.48;14.93;;;;;;;19.61;55.82;101521.41;5016378;28;20045;-58
2022/12/30 06:58:02;;;;;;;16.20;13.73;;;;;;;19.61;55.81;101529.47;5016511;28;20041;-58
2022/12/30 07:00:30;;;;;;;17.33;14.52;;;;;;;19.61;55.91;101534.84;5016219;28;20050;-59
2022/12/30 07:02:57;;;;;;;16.92;14.07;;;;;;;19.61;55.93;101542.91;5016390;28;20049;-58
2022/12/30 07:05:25;;;;;;;18.60;14.73;;;;;;;19.60;55.96;101552.75;5016304;28;20424;-58
2022/12/30 07:07:52;;;;;;;17.58;13.98;;;;;;;19.60;55.99;101552.75;5016910;28;20081;-58
2022/12/30 07:10:20;;;;;;;18.13;14.05;;;;;;;19.61;56.04;101551.84;5016065;28;20065;-59
2022/12/30 07:12:47;;;;;;;17.48;13.93;;;;;;;19.60;55.96;101547.38;5016323;28;20060;-59
2022/12/30 07:15:14;;;;;;;16.48;13.65;;;;;;;19.60;55.96;101560.81;5015885;28;20045;-58
2022/12/30 07:17:42;;;;;;;17.88;14.05;;;;;;;19.60;55.83;101574.25;5015901;28;20053;-59
2022/12/30 07:20:11;;;;;;;17.80;13.13;;;;;;;19.61;56.11;101585.88;5015925;28;20037;-59
2022/12/30 07:22:38;;;;;;;14.18;12.63;;;;;;;19.61;56.09;101593.94;5015995;28;20046;-59
2022/12/30 07:25:06;;;;;;;17.95;13.57;;;;;;;19.61;55.88;101602.00;5015924;28;20400;-59
2022/12/30 07:27:34;;;;;;;17.98;13.63;;;;;;;19.61;55.90;101602.00;5015734;28;20042;-59
2022/12/30 07:30:02;;;;;;;16.42;13.77;;;;;;;19.62;55.79;101599.22;5016231;28;20046;-53
2022/12/30 07:32:29;;;;;;;20.17;15.15;;;;;;;19.61;55.66;101602.88;5015830;28;20042;-52
2022/12/30 07:34:57;;;;;;;18.60;14.18;;;;;;;19.61;55.75;101602.00;5015838;28;20046;-50
2022/12/30 07:37:24;;;;;;;18.20;14.15;;;;;;;19.61;55.75;101602.88;5015797;28;20050;-50
2022/12/30 07:39:51;;;;;;;16.10;13.85;;;;;;;19.61;55.79;101610.06;5015468;28;20050;-51
2022/12/30 07:42:19;;;;;;;16.92;13.73;;;;;;;19.60;55.57;101605.63;5015644;28;20114;-51
2022/12/30 07:44:46;;;;;;;18.63;14.45;;;;;;;19.60;55.69;101617.22;5015283;28;20058;-51
2022/12/30 07:47:13;;;;;;;19.77;14.55;;;;;;;19.60;55.61;101621.75;5015551;28;20050;-52
2022/12/30 07:49:41;;;;;;;15.43;13.40;;;;;;;19.60;55.60;101630.66;5015476;28;20053;-51
2022/12/30 07:52:08;;;;;;;16.80;13.07;;;;;;;19.60;55.65;101643.22;5015414;28;20049;-52
2022/12/30 07:54:35;;;;;;;15.10;13.50;;;;;;;19.59;55.68;101642.38;5015482;28;20045;-50
2022/12/30 07:57:03;;;;;;;15.52;13.07;;;;;;;19.60;55.61;101646.78;5015343;28;20045;-55
2022/12/30 07:59:30;;;;;;;17.40;14.30;;;;;;;19.60;55.61;101640.53;5015274;28;20045;-53
2022/12/30 08:01:57;;;;;;;16.60;14.00;;;;;;;19.58;55.65;101640.66;5015056;28;20051;-51
2022/12/30 08:04:25;;;;;;;17.45;14.50;;;;;;;19.59;55.51;101645.06;5014298;28;20050;-53
2022/12/30 08:07:14;;;;;;;16.80;13.25;;;;;;;19.60;55.93;101657.50;5015282;28;20514;-53
2022/12/30 08:09:41;;;;;;;17.55;13.85;;;;;;;19.59;55.94;101652.28;5015297;28;20054;-54
2022/12/30 08:12:09;;;;;;;16.70;13.55;;;;;;;19.61;55.84;101661.97;5015190;28;20052;-51
2022/12/30 08:14:36;;;;;;;19.65;14.52;;;;;;;19.60;55.72;101646.78;5014892;28;20057;-53
2022/12/30 08:17:03;;;;;;;16.67;13.30;;;;;;;19.60;56.07;101654.84;5014993;28;20503;-51
2022/12/30 08:19:31;;;;;;;18.88;13.73;;;;;;;19.60;56.15;101651.28;5015023;28;20053;-53
2022/12/30 08:21:58;;;;;;;19.33;14.60;;;;;;;19.59;56.01;101647.75;5014324;28;20038;-53
2022/12/30 08:24:26;;;;;;;15.50;13.30;;;;;;;19.61;56.01;101647.66;5014620;28;20058;-50
2022/12/30 08:26:53;;;;;;;18.35;14.00;;;;;;;19.61;56.07;101647.66;5014592;28;20050;-54
2022/12/30 08:29:20;;;;;;;16.75;13.07;;;;;;;19.61;56.07;101644.97;5015111;28;20064;-50
2022/12/30 08:31:49;;;;;;;16.17;13.95;;;;;;;19.61;56.02;101647.66;5014739;28;20068;-53
2022/12/30 08:34:18;;;;;;;17.65;12.93;;;;;;;19.60;56.09;101652.16;5014722;28;20045;-53
2022/12/30 08:36:47;;;;;;;15.27;12.75;;;;;;;19.60;55.90;101654.84;5014651;28;20046;-55
2022/12/30 08:39:14;;;;;;;14.75;12.73;;;;;;;19.61;56.13;101663.78;5013915;28;20084;-51
2022/12/30 08:41:44;;;;;;;17.35;13.38;;;;;;;19.61;56.02;101658.41;5014338;28;20408;-52
2022/12/30 08:44:20;;;;;;;16.17;13.00;;;;;;;19.61;55.98;101664.66;5014570;28;20054;-51
2022/12/30 08:46:47;;;;;;;17.48;12.77;;;;;;;19.61;56.10;101675.41;5014071;28;20407;-50
2022/12/30 08:49:14;;;;;;;22.13;15.82;;;;;;;19.62;55.90;101687.84;5014124;28;20503;-55
2022/12/30 08:51:42;;;;;;;22.00;16.77;;;;;;;19.61;54.98;101687.94;5014400;28;20045;-51
2022/12/30 08:54:09;;;;;;;20.70;16.02;;;;;;;19.62;55.21;101682.47;5014266;28;20056;-53
2022/12/30 08:56:39;;;;;;;21.33;16.17;;;;;;;19.62;55.45;101689.69;5021484;28;20049;-54
2022/12/30 08:59:09;;;;;;;20.75;17.15;;;;;;;19.61;54.41;101674.53;5028424;28;20106;-55
2022/12/30 09:01:43;;;;;;;25.15;18.77;;;;;;;19.60;54.34;101681.69;5020723;28;20048;-58
2022/12/30 09:04:11;;;;;;;26.67;20.27;;;;;;;19.59;53.80;101684.50;5013769;28;20049;-58
2022/12/30 09:06:41;;;;;;;25.60;19.85;;;;;;;19.57;53.77;101698.06;5021269;28;20179;-53
2022/12/30 09:09:11;;;;;;;27.38;21.92;;;;;;;19.57;53.16;101706.13;5011934;28;20045;-57
2022/12/30 09:11:41;;;;;;;28.92;21.33;;;;;;;19.55;52.94;101705.34;5013341;28;20476;-55
2022/12/30 09:14:10;;;;;;;28.25;20.75;;;;;;;19.55;52.95;101708.03;5032380;28;20041;-55
2022/12/30 09:16:38;;;;;;;31.30;22.27;;;;;;;19.52;52.47;101714.47;5042856;28;20493;-57
2022/12/30 09:19:06;;;;;;;29.65;21.90;;;;;;;19.51;52.50;101701.19;5039178;28;20056;-58
2022/12/30 09:21:34;;;;;;;26.75;19.80;;;;;;;19.50;53.17;101697.63;5034298;28;20483;-53
2022/12/30 09:24:02;;;;;;;21.83;18.17;;;;;;;19.53;54.21;101701.94;5047805;28;20042;-54
2022/12/30 09:26:29;;;;;;;21.33;17.45;;;;;;;19.55;53.92;101708.03;5041354;28;20044;-55
2022/12/30 09:28:58;;;;;;;22.10;17.70;;;;;;;19.57;54.44;101713.28;5040052;28;20403;-55
2022/12/30 09:31:26;;;;;;;21.67;15.73;;;;;;;19.59;54.49;101722.09;5036274;28;20042;-55
2022/12/30 09:33:54;;;;;;;23.10;16.98;;;;;;;19.60;54.42;101723.81;5048874;28;20685;-56
2022/12/30 09:36:21;;;;;;;20.13;15.32;;;;;;;19.61;54.39;101710.31;5041036;28;20490;-56
2022/12/30 09:38:49;;;;;;;19.48;14.55;;;;;;;19.61;54.43;101704.94;5041080;28;20045;-55
2022/12/30 09:43:15;;;;;;;18.88;15.20;;;;;;;19.61;54.20;101709.44;5047597;28;20057;-56
2022/12/30 09:44:32;;;;;;;17.75;13.95;;;;;;;19.61;54.38;101712.13;5026112;28;20072;-53
2022/12/30 09:47:20;;;;;;;18.98;14.05;;;;;;;19.62;54.24;101712.03;5039888;28;20045;-55
2022/12/30 09:50:20;;;;;;;19.25;14.85;;;;;;;19.64;54.13;101715.44;5049331;28;20041;-54
2022/12/30 09:53:03;;;;;;;19.73;15.52;;;;;;;19.64;54.13;101710.06;5040831;28;20061;-54
2022/12/30 09:55:42;;;;;;;18.77;13.70;;;;;;;19.65;54.35;101716.34;5039829;28;20057;-54
2022/12/30 09:58:16;;;;;;;30.35;22.00;;;;;;;19.52;51.72;101708.25;5050130;28;20049;-53
2022/12/30 10:00:46;;;;;;;23.15;16.98;;;;;;;19.44;53.36;101711.50;5047118;28;20057;-53
2022/12/30 10:03:28;;;;;;;20.45;15.93;;;;;;;19.44;54.08;101707.94;5040890;28;20068;-55
2022/12/30 10:06:22;;;;;;;17.55;14.60;;;;;;;19.47;54.26;101708.59;5029995;28;20051;-55
2022/12/30 10:09:27;;;;;;;19.25;14.40;;;;;;;19.49;54.12;101703.97;5018395;28;20392;-57
2022/12/30 10:12:25;;;;;;;18.27;13.23;;;;;;;19.51;54.13;101702.03;4998434;28;20046;-57
2022/12/30 10:15:23;;;;;;;19.00;13.73;;;;;;;19.54;53.93;101698.28;4996803;28;20055;-54
2022/12/30 10:17:58;;;;;;;16.33;13.68;;;;;;;19.55;54.23;101697.28;5035187;28;20056;-55
2022/12/30 10:20:50;;;;;;;17.08;12.90;;;;;;;19.55;54.11;101699.97;5047505;28;20403;-54
2022/12/30 10:23:39;;;;;;;18.17;12.93;;;;;;;19.57;54.48;101694.47;5052176;28;20414;-51
2022/12/30 10:26:15;;;;;;;15.27;12.30;;;;;;;19.58;54.28;101693.53;5028048;28;20045;-51
2022/12/30 10:28:50;;;;;;;17.35;12.30;;;;;;;19.60;54.75;101687.06;5051760;28;20060;-57
2022/12/30 10:31:23;;;;;;;19.17;13.52;;;;;;;19.62;54.87;101682.47;5034526;28;20522;-58
2022/12/30 10:33:59;;;;;;;18.45;14.23;;;;;;;19.63;55.52;101689.56;5030408;28;20053;-59
2022/12/30 10:36:55;;;;;;;19.00;13.10;;;;;;;19.64;54.86;101680.53;5044618;28;20049;-58
2022/12/30 10:39:28;;;;;;;20.65;14.50;;;;;;;19.65;54.22;101701.06;5046277;28;20060;-55
2022/12/30 10:42:16;;;;;;;19.40;13.93;;;;;;;19.65;53.91;101690.31;5025123;28;20029;-56
2022/12/30 10:45:28;;;;;;;19.85;13.07;;;;;;;19.66;54.52;101692.03;5044938;28;20499;-57
2022/12/30 10:48:14;;;;;;;15.95;13.38;;;;;;;19.67;54.41;101692.88;5034839;28;20049;-57
2022/12/30 10:50:45;;;;;;;14.82;12.35;;;;;;;19.68;54.59;101691.91;5042748;28;20046;-54
2022/12/30 10:53:17;;;;;;;18.73;12.85;;;;;;;19.68;54.19;101692.75;5049152;28;20048;-55
2022/12/30 10:55:58;;;;;;;17.35;11.75;;;;;;;19.69;54.56;101682.91;5039396;28;20056;-58
2022/12/30 10:58:27;;;;;;;14.13;11.18;;;;;;;19.70;54.70;101681.91;5047553;28;20046;-57
2022/12/30 11:00:55;;;;;;;15.68;13.00;;;;;;;19.72;54.81;101685.34;5046345;28;20403;-58
2022/12/30 11:03:30;;;;;;;14.32;12.27;;;;;;;19.71;54.51;101686.31;5051064;28;20044;-58
2022/12/30 11:06:14;;;;;;;14.50;12.30;;;;;;;19.72;54.77;101688.88;5025279;28;20373;-54
2022/12/30 11:08:42;;;;;;;16.25;12.20;;;;;;;19.72;54.36;101691.56;5034033;28;20042;-54
2022/12/30 11:11:10;;;;;;;17.75;11.40;;;;;;;19.73;54.66;101687.94;5043508;28;20049;-58
2022/12/30 11:16:31;;;;;;;15.35;12.68;;;;;;;19.73;54.61;101682.56;5047361;28;20049;-59
2022/12/30 11:19:03;;;;;;;18.50;12.77;;;;;;;19.75;54.54;101679.75;5034592;28;20411;-57
2022/12/30 11:21:38;;;;;;;14.52;11.75;;;;;;;19.74;53.91;101689.63;5051278;28;20383;-56
2022/12/30 11:24:06;;;;;;;15.10;11.95;;;;;;;19.75;54.21;101691.34;5040557;28;20047;-60
2022/12/30 11:26:33;;;;;;;13.43;12.00;;;;;;;19.76;54.54;101678.75;5045859;28;20056;-56
2022/12/30 11:29:16;;;;;;;13.48;11.52;;;;;;;19.76;54.42;101676.06;5048252;28;20518;-52
2022/12/30 11:31:50;;;;;;;15.07;12.57;;;;;;;19.76;53.85;101678.75;5038360;28;20045;-59
2022/12/30 11:34:34;;;;;;;19.15;12.40;;;;;;;19.77;54.21;101685.88;5046155;28;20396;-57
2022/12/30 11:37:29;;;;;;;;;;;;;;;19.77;54.60;101677.81;5049119;28;20049;-59
2022/12/30 11:40:19;;;;;;;14.32;10.32;;;;;;;19.78;54.04;101676.84;5021880;28;19921;-58
2022/12/30 11:42:46;;;;;;;15.40;11.32;;;;;;;19.79;54.10;101681.22;5043303;28;20407;-58
2022/12/30 11:45:18;;;;;;;16.27;11.40;;;;;;;19.78;53.90;101663.41;5049868;28;20072;-59
2022/12/30 11:47:47;;;;;;;16.88;12.38;;;;;;;19.80;53.93;101665.97;5036732;28;20171;-58
2022/12/30 11:50:19;;;;;;;15.52;11.93;;;;;;;19.81;54.48;101668.56;5047516;28;20502;-56
2022/12/30 11:53:02;;;;;;;16.75;11.38;;;;;;;19.81;54.48;101667.66;5037417;28;20060;-57
2022/12/30 11:55:31;;;;;;;15.60;11.43;;;;;;;19.82;54.09;101686.38;5037793;28;20064;-56
2022/12/30 11:58:00;;;;;;;15.45;10.65;;;;;;;19.83;54.32;101682.72;5048724;28;20463;-54
2022/12/30 12:00:38;;;;;;;14.25;11.27;;;;;;;19.84;54.16;101667.44;5043253;28;20068;-57
2022/12/30 12:03:14;;;;;;;13.25;11.13;;;;;;;19.85;54.38;101661.09;5049815;28;20045;-60
2022/12/30 12:05:43;;;;;;;13.18;10.00;;;;;;;19.88;54.41;101655.50;5031622;28;20049;-59
2022/12/30 12:08:29;;;;;;;14.35;10.43;;;;;;;19.89;54.34;101667.94;5042853;28;20675;-59
2022/12/30 12:11:00;;;;;;;13.43;10.95;;;;;;;19.89;54.19;101676.00;5028810;28;20049;-61
2022/12/30 12:13:52;;;;;;;15.60;10.38;;;;;;;19.90;54.23;101686.66;5048918;28;20045;-59
2022/12/30 12:16:51;;;;;;;14.07;10.27;;;;;;;19.90;54.28;101672.38;5038248;28;20045;-55
2022/12/30 12:19:30;;;;;;;13.30;10.57;;;;;;;19.91;54.41;101672.25;5037113;28;20057;-59
2022/12/30 12:22:01;;;;;;;13.57;9.10;;;;;;;19.93;54.32;101670.31;5023057;28;20041;-59
2022/12/30 12:24:35;;;;;;;11.20;9.30;;;;;;;19.93;54.68;101659.56;5051891;28;20049;-58